createdAt,value
2017-10-14T00:00:22.108Z,16.71
2017-10-14T00:01:22.049Z,16.74
2017-10-14T00:02:22.034Z,16.68
2017-10-14T00:03:21.683Z,16.63
2017-10-14T00:04:21.680Z,16.67
2017-10-14T00:05:21.667Z,16.56
2017-10-14T00:06:21.986Z,16.65
2017-10-14T00:07:21.641Z,16.6
2017-10-14T00:08:21.291Z,16.59
2017-10-14T00:09:21.613Z,16.63
2017-10-14T00:10:21.264Z,16.6
2017-10-14T00:11:21.921Z,16.58
2017-10-14T00:12:21.571Z,16.62
2017-10-14T00:13:21.564Z,16.62
2017-10-14T00:14:21.223Z,16.56
2017-10-14T00:15:21.205Z,16.6
2017-10-14T00:16:21.525Z,16.58
2017-10-14T00:17:21.520Z,16.56
2017-10-14T00:18:21.841Z,16.58
2017-10-14T00:19:21.831Z,16.55
2017-10-14T00:20:21.473Z,16.62
2017-10-14T00:21:21.463Z,16.55
2017-10-14T00:22:21.453Z,16.56
2017-10-14T00:23:21.099Z,16.6
2017-10-14T00:24:21.304Z,16.6
2017-10-14T00:25:21.412Z,16.56
2017-10-14T00:26:21.067Z,16.63
2017-10-14T00:27:21.721Z,16.58
2017-10-14T00:28:21.373Z,16.65
2017-10-14T00:29:21.036Z,16.59
2017-10-14T00:30:21.398Z,16.6
2017-10-14T00:31:21.680Z,16.6
2017-10-14T00:32:20.991Z,16.62
2017-10-14T00:33:21.316Z,16.63
2017-10-14T00:34:21.298Z,16.56
2017-10-14T00:35:21.617Z,16.73
2017-10-14T00:36:21.275Z,16.7
2017-10-14T00:37:21.603Z,16.74
2017-10-14T00:38:21.252Z,16.7
2017-10-14T00:39:20.900Z,16.71
2017-10-14T00:40:21.224Z,16.74
2017-10-14T00:41:21.210Z,16.73
2017-10-14T00:42:20.864Z,16.78
2017-10-14T00:43:21.536Z,16.73
2017-10-14T00:44:21.176Z,16.78
2017-10-14T00:45:21.511Z,16.77
2017-10-14T00:46:21.150Z,16.75
2017-10-14T00:47:21.139Z,16.74
2017-10-14T00:48:21.127Z,16.8
2017-10-14T00:49:21.111Z,16.81
2017-10-14T00:50:21.101Z,16.71
2017-10-14T00:51:21.417Z,16.8
2017-10-14T00:52:20.742Z,16.78
2017-10-14T00:53:21.072Z,16.77
2017-10-14T00:54:21.386Z,16.86
2017-10-14T00:55:20.699Z,16.83
2017-10-14T00:56:21.022Z,16.8
2017-10-14T00:57:21.352Z,16.73
2017-10-14T00:58:20.996Z,16.74
2017-10-14T00:59:21.000Z,16.68
2017-10-14T01:00:20.974Z,16.74
2017-10-14T01:01:20.628Z,16.71
2017-10-14T01:02:21.292Z,16.71
2017-10-14T01:03:20.939Z,16.71
2017-10-14T01:04:20.592Z,16.71
2017-10-14T01:05:20.910Z,16.71
2017-10-14T01:06:21.237Z,16.73
2017-10-14T01:07:20.894Z,16.73
2017-10-14T01:08:20.882Z,16.71
2017-10-14T01:09:21.199Z,16.73
2017-10-14T01:10:20.850Z,16.74
2017-10-14T01:11:20.502Z,16.7
2017-10-14T01:12:20.490Z,16.7
2017-10-14T01:13:20.479Z,16.73
2017-10-14T01:14:20.471Z,16.71
2017-10-14T01:15:21.121Z,16.71
2017-10-14T01:16:21.116Z,16.71
2017-10-14T01:17:21.096Z,16.77
2017-10-14T01:18:20.749Z,16.73
2017-10-14T01:19:20.738Z,16.7
2017-10-14T01:20:21.059Z,16.71
2017-10-14T01:21:20.761Z,16.73
2017-10-14T01:22:21.044Z,16.77
2017-10-14T01:23:21.036Z,16.71
2017-10-14T01:24:20.340Z,16.75
2017-10-14T01:25:20.999Z,16.7
2017-10-14T01:26:20.653Z,16.73
2017-10-14T01:27:20.632Z,16.75
2017-10-14T01:28:20.957Z,16.68
2017-10-14T01:29:20.610Z,16.75
2017-10-14T01:30:20.266Z,16.71
2017-10-14T01:31:20.257Z,16.7
2017-10-14T01:32:20.238Z,16.75
2017-10-14T01:33:20.560Z,16.77
2017-10-14T01:34:20.894Z,16.71
2017-10-14T01:35:20.203Z,16.8
2017-10-14T01:36:20.859Z,16.75
2017-10-14T01:37:20.512Z,16.71
2017-10-14T01:38:20.837Z,16.74
2017-10-14T01:39:20.488Z,16.74
2017-10-14T01:40:20.142Z,16.74
2017-10-14T01:41:20.125Z,16.71
2017-10-14T01:42:20.450Z,16.78
2017-10-14T01:43:20.776Z,16.71
2017-10-14T01:44:20.761Z,16.68
2017-10-14T01:45:20.078Z,16.74
2017-10-14T01:46:20.402Z,16.65
2017-10-14T01:47:20.730Z,16.77
2017-10-14T01:48:20.378Z,16.77
2017-10-14T01:49:20.693Z,16.71
2017-10-14T01:50:20.351Z,16.74
2017-10-14T01:51:20.676Z,16.74
2017-10-14T01:52:20.336Z,16.71
2017-10-14T01:53:20.678Z,16.71
2017-10-14T01:54:19.964Z,16.7
2017-10-14T01:55:20.624Z,16.75
2017-10-14T01:56:20.273Z,16.68
2017-10-14T01:57:20.262Z,16.73
2017-10-14T01:58:19.921Z,16.74
2017-10-14T01:59:20.237Z,16.68
2017-10-14T02:00:20.560Z,16.7
2017-10-14T02:01:19.878Z,16.71
2017-10-14T02:02:19.870Z,16.73
2017-10-14T02:03:20.532Z,16.68
2017-10-14T02:04:20.514Z,16.68
2017-10-14T02:05:20.496Z,16.62
2017-10-14T02:06:19.823Z,16.68
2017-10-14T02:07:20.136Z,16.62
2017-10-14T02:08:19.792Z,16.6
2017-10-14T02:09:19.780Z,16.59
2017-10-14T02:10:20.451Z,16.58
2017-10-14T02:11:20.085Z,16.59
2017-10-14T02:12:20.073Z,16.6
2017-10-14T02:13:20.389Z,16.6
2017-10-14T02:14:20.051Z,16.58
2017-10-14T02:15:20.039Z,16.58
2017-10-14T02:16:20.026Z,16.59
2017-10-14T02:17:20.363Z,16.53
2017-10-14T02:18:19.663Z,16.52
2017-10-14T02:19:19.991Z,16.56
2017-10-14T02:20:19.978Z,16.53
2017-10-14T02:21:19.960Z,16.53
2017-10-14T02:22:19.952Z,16.55
2017-10-14T02:23:19.934Z,16.55
2017-10-14T02:24:20.150Z,16.55
2017-10-14T02:25:19.913Z,16.45
2017-10-14T02:26:20.234Z,16.53
2017-10-14T02:27:19.555Z,16.5
2017-10-14T02:28:19.880Z,16.49
2017-10-14T02:29:20.191Z,16.44
2017-10-14T02:30:20.179Z,16.38
2017-10-14T02:31:19.835Z,16.37
2017-10-14T02:32:19.868Z,16.37
2017-10-14T02:33:19.817Z,16.31
2017-10-14T02:34:20.140Z,16.37
2017-10-14T02:35:19.790Z,16.34
2017-10-14T02:36:20.105Z,16.34
2017-10-14T02:37:20.106Z,16.37
2017-10-14T02:38:19.748Z,16.26
2017-10-14T02:39:20.074Z,16.35
2017-10-14T02:40:20.061Z,16.31
2017-10-14T02:41:19.710Z,16.31
2017-10-14T02:42:19.697Z,16.3
2017-10-14T02:43:19.685Z,16.27
2017-10-14T02:44:19.335Z,16.26
2017-10-14T02:45:19.326Z,16.3
2017-10-14T02:46:19.311Z,16.35
2017-10-14T02:47:19.636Z,16.33
2017-10-14T02:48:19.291Z,16.31
2017-10-14T02:49:19.951Z,16.25
2017-10-14T02:50:19.263Z,16.25
2017-10-14T02:51:19.249Z,16.27
2017-10-14T02:52:19.568Z,16.27
2017-10-14T02:53:19.901Z,16.3
2017-10-14T02:54:19.547Z,16.27
2017-10-14T02:55:19.870Z,16.26
2017-10-14T02:56:19.190Z,16.22
2017-10-14T02:57:19.172Z,16.2
2017-10-14T02:58:19.824Z,16.22
2017-10-14T02:59:19.485Z,16.22
2017-10-14T03:00:19.799Z,16.22
2017-10-14T03:01:19.464Z,16.18
2017-10-14T03:02:19.110Z,16.18
2017-10-14T03:03:19.430Z,16.25
2017-10-14T03:04:19.747Z,16.3
2017-10-14T03:05:19.410Z,16.2
2017-10-14T03:06:19.054Z,16.23
2017-10-14T03:07:19.718Z,16.16
2017-10-14T03:08:19.707Z,16.22
2017-10-14T03:09:19.018Z,16.18
2017-10-14T03:10:19.346Z,16.18
2017-10-14T03:11:19.336Z,16.22
2017-10-14T03:12:19.650Z,16.15
2017-10-14T03:13:19.299Z,16.16
2017-10-14T03:14:19.286Z,16.23
2017-10-14T03:15:19.627Z,16.12
2017-10-14T03:16:19.271Z,16.14
2017-10-14T03:17:19.579Z,16.18
2017-10-14T03:18:19.232Z,16.06
2017-10-14T03:19:19.556Z,16.03
2017-10-14T03:20:19.206Z,16.04
2017-10-14T03:21:19.534Z,16.09
2017-10-14T03:22:19.513Z,16.06
2017-10-14T03:23:19.505Z,16.01
2017-10-14T03:24:19.157Z,16.07
2017-10-14T03:25:18.810Z,16.04
2017-10-14T03:26:19.461Z,16.01
2017-10-14T03:27:19.453Z,16.01
2017-10-14T03:28:19.102Z,16.06
2017-10-14T03:29:18.757Z,16.03
2017-10-14T03:30:19.079Z,16.03
2017-10-14T03:31:18.734Z,15.97
2017-10-14T03:32:19.406Z,16
2017-10-14T03:33:19.427Z,15.97
2017-10-14T03:34:19.021Z,16
2017-10-14T03:35:19.013Z,16.04
2017-10-14T03:36:19.001Z,15.97
2017-10-14T03:37:18.661Z,16.01
2017-10-14T03:38:18.638Z,15.97
2017-10-14T03:39:18.633Z,16
2017-10-14T03:40:19.281Z,15.94
2017-10-14T03:41:19.269Z,15.96
2017-10-14T03:42:19.299Z,15.96
2017-10-14T03:43:18.577Z,15.96
2017-10-14T03:44:18.897Z,15.89
2017-10-14T03:45:18.884Z,15.89
2017-10-14T03:46:18.873Z,15.89
2017-10-14T03:47:19.194Z,15.94
2017-10-14T03:48:18.509Z,15.88
2017-10-14T03:49:19.174Z,15.85
2017-10-14T03:50:19.155Z,15.85
2017-10-14T03:51:18.811Z,15.88
2017-10-14T03:52:18.460Z,15.86
2017-10-14T03:53:19.124Z,15.88
2017-10-14T03:54:18.769Z,15.88
2017-10-14T03:55:18.761Z,15.88
2017-10-14T03:56:18.755Z,15.86
2017-10-14T03:57:18.730Z,15.78
2017-10-14T03:58:18.717Z,15.79
2017-10-14T03:59:18.700Z,15.78
2017-10-14T04:00:19.025Z,15.82
2017-10-14T04:01:19.007Z,15.72
2017-10-14T04:02:18.660Z,15.66
2017-10-14T04:03:18.987Z,15.74
2017-10-14T04:04:18.322Z,15.72
2017-10-14T04:05:18.963Z,15.76
2017-10-14T04:06:18.956Z,15.67
2017-10-14T04:07:18.939Z,15.64
2017-10-14T04:08:18.584Z,15.7
2017-10-14T04:09:18.904Z,15.67
2017-10-14T04:10:18.226Z,15.64
2017-10-14T04:11:18.877Z,15.67
2017-10-14T04:12:18.537Z,15.74
2017-10-14T04:13:18.518Z,15.7
2017-10-14T04:14:18.857Z,15.7
2017-10-14T04:15:18.497Z,15.67
2017-10-14T04:16:18.146Z,15.68
2017-10-14T04:17:18.476Z,15.66
2017-10-14T04:18:18.452Z,15.67
2017-10-14T04:19:18.439Z,15.63
2017-10-14T04:20:18.425Z,15.72
2017-10-14T04:21:18.417Z,15.6
2017-10-14T04:22:18.068Z,15.68
2017-10-14T04:23:18.394Z,15.6
2017-10-14T04:24:18.906Z,15.56
2017-10-14T04:25:18.369Z,15.61
2017-10-14T04:26:18.694Z,15.59
2017-10-14T04:27:18.005Z,15.59
2017-10-14T04:28:18.325Z,15.57
2017-10-14T04:29:18.029Z,15.63
2017-10-14T04:30:17.966Z,15.59
2017-10-14T04:31:18.289Z,15.67
2017-10-14T04:32:17.941Z,15.63
2017-10-14T04:33:18.589Z,15.6
2017-10-14T04:34:18.244Z,15.64
2017-10-14T04:35:18.567Z,15.63
2017-10-14T04:36:18.553Z,15.63
2017-10-14T04:37:17.872Z,15.56
2017-10-14T04:38:18.527Z,15.68
2017-10-14T04:39:18.512Z,15.54
2017-10-14T04:40:17.837Z,15.54
2017-10-14T04:41:18.154Z,15.61
2017-10-14T04:42:18.473Z,15.52
2017-10-14T04:43:18.125Z,15.56
2017-10-14T04:44:18.457Z,15.52
2017-10-14T04:45:18.109Z,15.56
2017-10-14T04:46:18.088Z,15.6
2017-10-14T04:47:18.076Z,15.56
2017-10-14T04:48:18.074Z,15.52
2017-10-14T04:49:18.385Z,15.48
2017-10-14T04:50:18.031Z,15.43
2017-10-14T04:51:18.019Z,15.46
2017-10-14T04:52:18.349Z,15.51
2017-10-14T04:53:18.328Z,15.45
2017-10-14T04:54:18.383Z,15.52
2017-10-14T04:55:17.972Z,15.54
2017-10-14T04:56:17.962Z,15.49
2017-10-14T04:57:17.618Z,15.52
2017-10-14T04:58:17.597Z,15.51
2017-10-14T04:59:18.247Z,15.48
2017-10-14T05:00:17.567Z,15.54
2017-10-14T05:01:17.888Z,15.48
2017-10-14T05:02:17.878Z,15.56
2017-10-14T05:03:17.862Z,15.52
2017-10-14T05:04:17.527Z,15.48
2017-10-14T05:05:18.170Z,15.51
2017-10-14T05:06:18.161Z,15.54
2017-10-14T05:07:17.808Z,15.52
2017-10-14T05:08:18.129Z,15.56
2017-10-14T05:09:17.785Z,15.52
2017-10-14T05:10:17.773Z,15.52
2017-10-14T05:11:17.424Z,15.57
2017-10-14T05:12:18.079Z,15.54
2017-10-14T05:13:17.402Z,15.51
2017-10-14T05:14:17.718Z,15.59
2017-10-14T05:15:17.703Z,15.49
2017-10-14T05:16:18.025Z,15.52
2017-10-14T05:17:18.007Z,15.52
2017-10-14T05:18:17.999Z,15.56
2017-10-14T05:19:17.646Z,15.51
2017-10-14T05:20:17.638Z,15.52
2017-10-14T05:21:17.624Z,15.51
2017-10-14T05:22:17.966Z,15.54
2017-10-14T05:23:17.264Z,15.49
2017-10-14T05:24:17.578Z,15.56
2017-10-14T05:25:17.578Z,15.59
2017-10-14T05:26:17.557Z,15.52
2017-10-14T05:27:17.880Z,15.54
2017-10-14T05:28:17.864Z,15.56
2017-10-14T05:29:17.183Z,15.54
2017-10-14T05:30:17.504Z,15.59
2017-10-14T05:31:17.156Z,15.52
2017-10-14T05:32:17.476Z,15.56
2017-10-14T05:33:17.462Z,15.49
2017-10-14T05:34:17.118Z,15.54
2017-10-14T05:35:17.150Z,15.52
2017-10-14T05:36:17.088Z,15.51
2017-10-14T05:37:17.412Z,15.57
2017-10-14T05:38:17.060Z,15.49
2017-10-14T05:39:17.383Z,15.52
2017-10-14T05:40:17.712Z,15.54
2017-10-14T05:41:17.697Z,15.52
2017-10-14T05:42:17.009Z,15.51
2017-10-14T05:43:17.328Z,15.52
2017-10-14T05:44:17.318Z,15.52
2017-10-14T05:45:16.985Z,15.54
2017-10-14T05:46:16.955Z,15.51
2017-10-14T05:47:16.940Z,15.46
2017-10-14T05:48:16.931Z,15.46
2017-10-14T05:49:17.592Z,15.41
2017-10-14T05:50:17.235Z,15.43
2017-10-14T05:51:17.242Z,15.52
2017-10-14T05:52:17.209Z,15.46
2017-10-14T05:53:17.195Z,15.45
2017-10-14T05:54:17.518Z,15.49
2017-10-14T05:55:17.178Z,15.48
2017-10-14T05:56:16.823Z,15.48
2017-10-14T05:57:16.810Z,15.45
2017-10-14T05:58:17.137Z,15.42
2017-10-14T05:59:17.115Z,15.42
2017-10-14T06:00:16.770Z,15.51
2017-10-14T06:01:16.754Z,15.48
2017-10-14T06:02:17.414Z,15.48
2017-10-14T06:03:16.730Z,15.48
2017-10-14T06:04:17.392Z,15.48
2017-10-14T06:05:17.035Z,15.45
2017-10-14T06:06:17.032Z,15.54
2017-10-14T06:07:17.011Z,15.43
2017-10-14T06:08:16.994Z,15.48
2017-10-14T06:09:16.982Z,15.42
2017-10-14T06:10:16.966Z,15.41
2017-10-14T06:11:17.288Z,15.43
2017-10-14T06:12:16.940Z,15.43
2017-10-14T06:13:16.936Z,15.42
2017-10-14T06:14:16.580Z,15.51
2017-10-14T06:15:17.232Z,15.39
2017-10-14T06:16:16.896Z,15.54
2017-10-14T06:17:16.870Z,15.42
2017-10-14T06:18:16.872Z,15.57
2017-10-14T06:19:16.512Z,15.54
2017-10-14T06:20:16.834Z,15.57
2017-10-14T06:21:16.816Z,15.46
2017-10-14T06:22:16.828Z,15.48
2017-10-14T06:23:17.124Z,15.51
2017-10-14T06:24:16.780Z,15.56
2017-10-14T06:25:16.765Z,15.51
2017-10-14T06:26:16.756Z,15.52
2017-10-14T06:27:17.075Z,15.6
2017-10-14T06:28:16.771Z,15.56
2017-10-14T06:29:16.715Z,15.56
2017-10-14T06:30:16.411Z,15.56
2017-10-14T06:31:16.400Z,15.56
2017-10-14T06:32:16.681Z,15.56
2017-10-14T06:33:17.000Z,15.51
2017-10-14T06:34:16.650Z,15.54
2017-10-14T06:35:16.295Z,15.54
2017-10-14T06:36:17.030Z,15.61
2017-10-14T06:37:16.937Z,15.51
2017-10-14T06:38:16.931Z,15.54
2017-10-14T06:39:16.571Z,15.57
2017-10-14T06:40:16.578Z,15.49
2017-10-14T06:41:16.553Z,15.61
2017-10-14T06:42:16.879Z,15.67
2017-10-14T06:43:16.523Z,15.64
2017-10-14T06:44:16.518Z,15.6
2017-10-14T06:45:16.499Z,15.57
2017-10-14T06:46:16.512Z,15.64
2017-10-14T06:47:16.482Z,15.64
2017-10-14T06:48:16.791Z,15.66
2017-10-14T06:49:16.784Z,15.64
2017-10-14T06:50:16.427Z,15.66
2017-10-14T06:51:16.420Z,15.68
2017-10-14T06:52:16.405Z,15.78
2017-10-14T06:53:16.053Z,15.72
2017-10-14T06:54:16.382Z,15.79
2017-10-14T06:55:16.699Z,15.86
2017-10-14T06:56:16.686Z,15.76
2017-10-14T06:57:16.339Z,15.79
2017-10-14T06:58:15.989Z,15.78
2017-10-14T06:59:16.310Z,15.82
2017-10-14T07:00:16.636Z,15.86
2017-10-14T07:01:16.623Z,15.92
2017-10-14T07:02:16.607Z,15.89
2017-10-14T07:03:16.256Z,15.84
2017-10-14T07:04:16.252Z,15.96
2017-10-14T07:05:16.232Z,15.86
2017-10-14T07:06:16.231Z,15.93
2017-10-14T07:07:16.206Z,15.92
2017-10-14T07:08:16.562Z,15.94
2017-10-14T07:09:16.190Z,15.97
2017-10-14T07:10:16.519Z,15.99
2017-10-14T07:11:15.831Z,16.03
2017-10-14T07:12:16.547Z,16.01
2017-10-14T07:13:16.127Z,16.06
2017-10-14T07:14:16.449Z,16.18
2017-10-14T07:15:16.105Z,16.11
2017-10-14T07:16:16.100Z,16.14
2017-10-14T07:17:16.073Z,16.15
2017-10-14T07:18:16.393Z,16.2
2017-10-14T07:19:47.804Z,16.15
2017-10-14T07:20:16.050Z,16.18
2017-10-14T07:21:15.693Z,16.16
2017-10-14T07:22:15.686Z,16.22
2017-10-14T07:23:15.673Z,16.26
2017-10-14T07:24:15.998Z,16.35
2017-10-14T07:25:15.974Z,16.23
2017-10-14T07:26:16.303Z,16.3
2017-10-14T07:27:15.949Z,16.38
2017-10-14T07:28:15.934Z,16.25
2017-10-14T07:29:16.251Z,16.4
2017-10-14T07:30:15.912Z,16.34
2017-10-14T07:31:15.902Z,16.42
2017-10-14T07:32:15.881Z,16.44
2017-10-14T07:33:15.868Z,16.49
2017-10-14T07:34:15.863Z,16.42
2017-10-14T07:35:15.845Z,16.45
2017-10-14T07:36:16.170Z,16.49
2017-10-14T07:37:15.825Z,16.52
2017-10-14T07:38:16.157Z,16.59
2017-10-14T07:39:15.460Z,16.59
2017-10-14T07:40:15.783Z,16.6
2017-10-14T07:41:15.768Z,16.56
2017-10-14T07:42:15.758Z,16.63
2017-10-14T07:43:15.743Z,16.71
2017-10-14T07:44:15.728Z,16.78
2017-10-14T07:45:15.716Z,16.71
2017-10-14T07:46:16.034Z,16.8
2017-10-14T07:47:15.700Z,16.86
2017-10-14T07:48:15.683Z,16.75
2017-10-14T07:49:15.672Z,16.77
2017-10-14T07:50:15.653Z,16.86
2017-10-14T07:51:15.639Z,16.93
2017-10-14T07:52:15.447Z,16.85
2017-10-14T07:53:15.959Z,16.95
2017-10-14T07:54:15.267Z,16.95
2017-10-14T07:55:15.926Z,16.96
2017-10-14T07:56:15.913Z,17.03
2017-10-14T07:57:15.901Z,17.06
2017-10-14T07:58:15.903Z,17.06
2017-10-14T07:59:15.542Z,17.11
2017-10-14T08:00:15.872Z,17.13
2017-10-14T08:01:15.849Z,17.13
2017-10-14T08:02:15.555Z,17.32
2017-10-14T08:03:15.492Z,17.64
2017-10-14T08:04:15.488Z,17.85
2017-10-14T08:05:15.141Z,17.87
2017-10-14T08:06:15.791Z,17.87
2017-10-14T08:07:15.446Z,17.85
2017-10-14T08:08:15.769Z,17.85
2017-10-14T08:09:15.755Z,17.89
2017-10-14T08:10:15.075Z,17.82
2017-10-14T08:11:15.429Z,17.84
2017-10-14T08:12:15.386Z,17.82
2017-10-14T08:13:15.040Z,17.74
2017-10-14T08:14:15.363Z,17.71
2017-10-14T08:15:15.502Z,17.81
2017-10-14T08:16:15.002Z,17.78
2017-10-14T08:17:15.320Z,17.78
2017-10-14T08:18:15.312Z,17.85
2017-10-14T08:19:15.635Z,17.99
2017-10-14T08:20:15.285Z,17.92
2017-10-14T08:21:14.944Z,17.97
2017-10-14T08:22:15.603Z,18.02
2017-10-14T08:23:15.255Z,18
2017-10-14T08:24:15.244Z,18.02
2017-10-14T08:25:15.097Z,18.03
2017-10-14T08:26:15.221Z,18
2017-10-14T08:27:14.873Z,18.18
2017-10-14T08:28:15.532Z,18.27
2017-10-14T08:29:14.851Z,18.17
2017-10-14T08:30:15.176Z,18.19
2017-10-14T08:31:15.164Z,18.17
2017-10-14T08:32:15.151Z,18.13
2017-10-14T08:33:15.138Z,18.21
2017-10-14T08:34:15.127Z,18.21
2017-10-14T08:35:15.112Z,18.15
2017-10-14T08:36:14.770Z,18.1
2017-10-14T08:37:14.755Z,18.12
2017-10-14T08:38:15.076Z,18.1
2017-10-14T08:39:15.398Z,18.13
2017-10-14T08:40:15.063Z,18.15
2017-10-14T08:41:14.714Z,18.21
2017-10-14T08:42:15.369Z,18.22
2017-10-14T08:43:15.359Z,18.25
2017-10-14T08:44:15.350Z,18.24
2017-10-14T08:45:15.004Z,18.22
2017-10-14T08:46:15.338Z,18.33
2017-10-14T08:47:15.305Z,18.33
2017-10-14T08:48:14.966Z,18.25
2017-10-14T08:49:14.957Z,18.28
2017-10-14T08:50:15.272Z,18.27
2017-10-14T08:51:14.928Z,18.29
2017-10-14T08:52:14.919Z,18.33
2017-10-14T08:53:14.573Z,18.37
2017-10-14T08:54:14.577Z,18.37
2017-10-14T08:55:14.883Z,18.44
2017-10-14T08:56:15.216Z,18.43
2017-10-14T08:57:14.864Z,18.4
2017-10-14T08:58:15.192Z,18.46
2017-10-14T08:59:14.506Z,18.47
2017-10-14T09:00:15.173Z,18.52
2017-10-14T09:01:14.813Z,18.52
2017-10-14T09:02:14.804Z,18.49
2017-10-14T09:03:14.458Z,18.57
2017-10-14T09:04:14.784Z,18.46
2017-10-14T09:05:14.769Z,18.57
2017-10-14T09:06:14.429Z,18.55
2017-10-14T09:07:15.087Z,18.54
2017-10-14T09:08:14.743Z,18.67
2017-10-14T09:09:14.726Z,18.65
2017-10-14T09:10:14.380Z,18.62
2017-10-14T09:11:14.366Z,18.67
2017-10-14T09:12:14.693Z,18.74
2017-10-14T09:13:14.679Z,18.73
2017-10-14T09:14:14.335Z,18.77
2017-10-14T09:15:14.658Z,18.77
2017-10-14T09:16:14.314Z,18.77
2017-10-14T09:17:14.635Z,18.77
2017-10-14T09:18:14.625Z,18.82
2017-10-14T09:19:14.282Z,18.87
2017-10-14T09:20:14.938Z,18.94
2017-10-14T09:21:14.922Z,18.94
2017-10-14T09:22:14.920Z,18.91
2017-10-14T09:23:14.573Z,18.9
2017-10-14T09:24:14.601Z,18.95
2017-10-14T09:25:14.557Z,18.99
2017-10-14T09:26:14.544Z,19.11
2017-10-14T09:27:14.861Z,19.11
2017-10-14T09:28:14.852Z,19.21
2017-10-14T09:29:14.173Z,19.2
2017-10-14T09:30:14.525Z,19.29
2017-10-14T09:31:14.487Z,19.25
2017-10-14T09:32:14.815Z,19.29
2017-10-14T09:33:14.465Z,19.38
2017-10-14T09:34:14.467Z,19.33
2017-10-14T09:35:14.445Z,19.35
2017-10-14T09:36:14.102Z,19.33
2017-10-14T09:37:14.423Z,19.31
2017-10-14T09:38:14.412Z,19.35
2017-10-14T09:39:14.405Z,19.35
2017-10-14T09:40:14.079Z,19.39
2017-10-14T09:41:14.393Z,19.42
2017-10-14T09:42:14.392Z,19.42
2017-10-14T09:43:14.705Z,19.38
2017-10-14T09:44:14.702Z,19.53
2017-10-14T09:45:14.677Z,19.48
2017-10-14T09:46:14.349Z,19.51
2017-10-14T09:47:14.666Z,19.6
2017-10-14T09:48:14.312Z,19.63
2017-10-14T09:49:13.960Z,19.66
2017-10-14T09:50:14.285Z,19.68
2017-10-14T09:51:14.278Z,19.68
2017-10-14T09:52:14.609Z,19.6
2017-10-14T09:53:14.260Z,19.69
2017-10-14T09:54:14.591Z,19.65
2017-10-14T09:55:14.246Z,19.69
2017-10-14T09:56:14.236Z,19.72
2017-10-14T09:57:13.881Z,19.73
2017-10-14T09:58:14.224Z,19.68
2017-10-14T09:59:14.221Z,19.72
2017-10-14T10:00:14.540Z,19.83
2017-10-14T10:01:14.174Z,19.75
2017-10-14T10:02:14.162Z,19.79
2017-10-14T10:03:13.818Z,19.8
2017-10-14T10:04:13.812Z,19.84
2017-10-14T10:05:14.128Z,19.79
2017-10-14T10:06:14.121Z,19.91
2017-10-14T10:07:13.777Z,19.94
2017-10-14T10:08:14.103Z,19.94
2017-10-14T10:09:14.427Z,19.98
2017-10-14T10:10:14.119Z,19.97
2017-10-14T10:11:14.070Z,20.09
2017-10-14T10:12:14.404Z,20.12
2017-10-14T10:13:13.723Z,20.09
2017-10-14T10:14:14.406Z,20.18
2017-10-14T10:15:14.362Z,20.23
2017-10-14T10:16:14.352Z,20.24
2017-10-14T10:17:14.005Z,20.25
2017-10-14T10:18:13.998Z,20.25
2017-10-14T10:19:14.324Z,20.23
2017-10-14T10:20:13.647Z,20.21
2017-10-14T10:21:13.638Z,20.3
2017-10-14T10:22:14.292Z,20.25
2017-10-14T10:23:13.616Z,20.41
2017-10-14T10:24:13.942Z,20.43
2017-10-14T10:25:13.802Z,20.39
2017-10-14T10:26:14.259Z,20.42
2017-10-14T10:27:14.262Z,20.38
2017-10-14T10:28:13.905Z,20.39
2017-10-14T10:29:13.896Z,20.39
2017-10-14T10:30:14.230Z,20.47
2017-10-14T10:31:13.895Z,20.49
2017-10-14T10:32:13.865Z,20.54
2017-10-14T10:33:14.186Z,20.49
2017-10-14T10:34:13.849Z,20.62
2017-10-14T10:35:13.501Z,20.53
2017-10-14T10:36:14.161Z,20.64
2017-10-14T10:37:14.148Z,20.66
2017-10-14T10:38:13.483Z,20.69
2017-10-14T10:39:13.798Z,20.74
2017-10-14T10:40:14.146Z,20.8
2017-10-14T10:41:13.785Z,20.69
2017-10-14T10:42:13.766Z,20.8
2017-10-14T10:43:14.095Z,20.83
2017-10-14T10:44:13.749Z,20.84
2017-10-14T10:45:13.739Z,20.95
2017-10-14T10:46:13.737Z,20.96
2017-10-14T10:47:14.060Z,20.96
2017-10-14T10:48:13.378Z,21.04
2017-10-14T10:49:14.044Z,21.14
2017-10-14T10:50:13.698Z,21.11
2017-10-14T10:51:13.355Z,21.17
2017-10-14T10:52:14.010Z,21.26
2017-10-14T10:53:14.012Z,21.38
2017-10-14T10:54:13.378Z,21.56
2017-10-14T10:55:13.651Z,21.63
2017-10-14T10:56:13.649Z,21.69
2017-10-14T10:57:13.637Z,21.66
2017-10-14T10:58:13.302Z,21.74
2017-10-14T10:59:13.954Z,21.66
2017-10-14T11:00:13.953Z,21.6
2017-10-14T11:01:13.265Z,21.67
2017-10-14T11:02:13.593Z,21.67
2017-10-14T11:03:13.917Z,21.71
2017-10-14T11:04:13.266Z,21.82
2017-10-14T11:05:13.570Z,21.67
2017-10-14T11:06:13.920Z,21.72
2017-10-14T11:07:13.590Z,21.81
2017-10-14T11:08:13.896Z,21.74
2017-10-14T11:09:13.923Z,21.83
2017-10-14T11:10:13.917Z,21.88
2017-10-14T11:11:13.543Z,21.94
2017-10-14T11:12:13.866Z,21.81
2017-10-14T11:13:13.889Z,21.78
2017-10-14T11:14:13.847Z,21.76
2017-10-14T11:15:13.533Z,21.72
2017-10-14T11:16:13.854Z,21.9
2017-10-14T11:17:13.153Z,21.83
2017-10-14T11:18:13.473Z,21.85
2017-10-14T11:19:13.801Z,21.74
2017-10-14T11:20:13.111Z,21.82
2017-10-14T11:21:13.798Z,21.85
2017-10-14T11:22:13.443Z,21.94
2017-10-14T11:23:13.753Z,22.04
2017-10-14T11:24:13.750Z,22.19
2017-10-14T11:25:13.085Z,22.25
2017-10-14T11:26:13.732Z,22.31
2017-10-14T11:27:13.388Z,22.34
2017-10-14T11:28:13.714Z,22.29
2017-10-14T11:29:13.421Z,22.46
2017-10-14T11:30:13.746Z,22.44
2017-10-14T11:31:13.765Z,22.46
2017-10-14T11:32:13.723Z,22.53
2017-10-14T11:33:13.391Z,22.54
2017-10-14T11:34:13.041Z,22.68
2017-10-14T11:35:13.332Z,22.72
2017-10-14T11:36:13.698Z,22.89
2017-10-14T11:37:13.360Z,22.96
2017-10-14T11:38:13.349Z,23.07
2017-10-14T11:39:13.315Z,23.19
2017-10-14T11:40:13.363Z,23.29
2017-10-14T11:41:13.340Z,23.09
2017-10-14T11:42:13.312Z,23.04
2017-10-14T11:43:13.322Z,23.08
2017-10-14T11:44:13.305Z,23.08
2017-10-14T11:45:13.650Z,23.05
2017-10-14T11:46:13.300Z,23.14
2017-10-14T11:47:13.312Z,23.07
2017-10-14T11:48:13.623Z,23.07
2017-10-14T11:49:13.650Z,23.05
2017-10-14T11:50:13.393Z,23.26
2017-10-14T11:51:13.632Z,23.24
2017-10-14T11:52:12.942Z,23.19
2017-10-14T11:53:13.221Z,23.32
2017-10-14T11:54:13.234Z,23.39
2017-10-14T11:55:13.621Z,23.38
2017-10-14T11:56:12.869Z,23.46
2017-10-14T11:57:13.531Z,23.71
2017-10-14T11:58:13.577Z,23.77
2017-10-14T11:59:13.515Z,23.97
2017-10-14T12:00:13.185Z,24.22
2017-10-14T12:01:13.514Z,24.54
2017-10-14T12:02:13.171Z,24.67
2017-10-14T12:03:13.170Z,25.07
2017-10-14T12:04:13.171Z,25.35
2017-10-14T12:05:13.192Z,25.57
2017-10-14T12:06:13.514Z,25.93
2017-10-14T12:07:12.824Z,26.09
2017-10-14T12:08:13.170Z,26.22
2017-10-14T12:09:13.518Z,26.29
2017-10-14T12:10:12.874Z,26.52
2017-10-14T12:11:13.514Z,26.5
2017-10-14T12:12:12.874Z,26.57
2017-10-14T12:13:12.843Z,26.61
2017-10-14T12:14:13.190Z,26.96
2017-10-14T12:15:12.846Z,27.06
2017-10-14T12:16:13.182Z,27.23
2017-10-14T12:17:13.516Z,27.28
2017-10-14T12:18:13.189Z,26.96
2017-10-14T12:19:13.150Z,27.14
2017-10-14T12:20:13.166Z,27.46
2017-10-14T12:21:13.169Z,27.5
2017-10-14T12:22:13.167Z,27.67
2017-10-14T12:23:13.491Z,27.58
2017-10-14T12:24:13.157Z,27.29
2017-10-14T12:25:13.142Z,27.33
2017-10-14T12:26:13.231Z,27.62
2017-10-14T12:27:13.159Z,27.73
2017-10-14T12:28:12.821Z,27.94
2017-10-14T12:29:13.148Z,27.99
2017-10-14T12:30:12.820Z,28.04
2017-10-14T12:31:13.207Z,28.13
2017-10-14T12:32:13.153Z,28.21
2017-10-14T12:33:13.160Z,28.31
2017-10-14T12:34:13.498Z,28.14
2017-10-14T12:35:13.161Z,28.21
2017-10-14T12:36:13.503Z,28.16
2017-10-14T12:37:13.497Z,27.85
2017-10-14T12:38:13.515Z,27.85
2017-10-14T12:39:13.500Z,27.99
2017-10-14T12:40:13.177Z,28.25
2017-10-14T12:41:13.180Z,28.51
2017-10-14T12:42:13.510Z,28.85
2017-10-14T12:43:13.509Z,29.13
2017-10-14T12:44:12.848Z,29.29
2017-10-14T12:45:12.852Z,29.37
2017-10-14T12:46:13.185Z,29.4
2017-10-14T12:47:13.185Z,29.52
2017-10-14T12:48:13.529Z,29.34
2017-10-14T12:49:13.532Z,29.59
2017-10-14T12:50:13.542Z,29.44
2017-10-14T12:51:13.252Z,29.34
2017-10-14T12:52:13.203Z,29.56
2017-10-14T12:53:12.883Z,29.55
2017-10-14T12:54:13.544Z,29.79
2017-10-14T12:55:13.550Z,29.74